Time;durP1;ratioP1;P1;durP2;ratioP2;P2;SDS_P1;SDS_P2;PMS_P1;PMS_P2;Temp;Humidity;BMP_temperature;BMP_pressure;BME280_temperature;BME280_humidity;BME280_pressure;Samples;Min_cycle;Max_cycle;Signal;HPM_P1;HPM_P2
2024/01/13 00:00:04;;;;;;;18.90;13.80;;;;;;;-2.51;97.58;96896.36;108651;1281;138482;-86
2024/01/13 00:02:32;;;;;;;19.30;13.80;;;;;;;-2.50;97.71;96889.17;108845;1283;22496;-85
2024/01/13 00:04:59;;;;;;;19.60;13.40;;;;;;;-2.50;97.50;96884.27;108501;1283;138021;-85
2024/01/13 00:07:25;;;;;;;20.30;15.20;;;;;;;-2.51;97.57;96887.73;108643;1284;22543;-85
2024/01/13 00:09:54;;;;;;;20.30;14.70;;;;;;;-2.53;97.96;96896.17;108482;1282;138776;-86
2024/01/13 00:12:21;;;;;;;19.30;15.30;;;;;;;-2.52;98.20;96892.73;108676;1276;24763;-85
2024/01/13 00:14:47;;;;;;;17.60;12.00;;;;;;;-2.52;98.18;96888.15;108741;1281;23757;-85
2024/01/13 00:17:14;;;;;;;16.20;11.70;;;;;;;-2.55;98.34;96879.69;108610;1282;138824;-85
2024/01/13 00:19:41;;;;;;;16.90;12.60;;;;;;;-2.52;98.16;96884.05;108593;1277;24225;-85
2024/01/13 00:22:08;;;;;;;16.80;12.10;;;;;;;-2.52;98.22;96879.15;108342;1282;138729;-85
2024/01/13 00:24:34;;;;;;;18.90;13.70;;;;;;;-2.52;98.00;96876.80;108558;1281;23010;-85
2024/01/13 00:27:01;;;;;;;22.10;15.40;;;;;;;-2.50;98.09;96873.63;108436;1281;22531;-87
2024/01/13 00:29:28;;;;;;;35.10;21.20;;;;;;;-2.48;98.19;96874.70;108305;1273;138389;-86
2024/01/13 00:31:54;;;;;;;36.20;22.00;;;;;;;-2.51;98.33;96873.17;108357;1281;25305;-87
2024/01/13 00:34:21;;;;;;;26.30;17.20;;;;;;;-2.54;98.38;96868.92;108283;1281;138116;-87
2024/01/13 00:36:47;;;;;;;23.90;14.70;;;;;;;-2.56;98.45;96864.14;108484;1282;25437;-87
2024/01/13 00:39:14;;;;;;;24.90;14.80;;;;;;;-2.59;98.62;96858.55;108431;1281;22531;-87
2024/01/13 00:41:41;;;;;;;22.80;13.80;;;;;;;-2.60;98.54;96855.70;108328;1282;138565;-85
2024/01/13 00:44:07;;;;;;;22.70;15.10;;;;;;;-2.57;98.49;96855.56;108542;1281;22531;-85
2024/01/13 00:46:34;;;;;;;17.30;12.30;;;;;;;-2.55;98.45;96856.11;108400;1281;138546;-85
2024/01/13 00:49:01;;;;;;;17.60;11.10;;;;;;;-2.53;98.43;96856.84;108455;1269;22597;-85
2024/01/13 00:51:30;;;;;;;15.00;11.40;;;;;;;-2.53;98.89;96847.12;108316;1281;22550;-84
2024/01/13 00:53:57;;;;;;;17.70;11.80;;;;;;;-2.46;98.73;96853.99;108331;1282;137977;-85
2024/01/13 00:56:23;;;;;;;15.00;10.80;;;;;;;-2.46;98.75;96849.25;108805;1274;23580;-85
2024/01/13 00:58:50;;;;;;;20.10;13.10;;;;;;;-2.46;98.80;96849.27;108504;1279;138007;-85
2024/01/13 01:01:17;;;;;;;19.10;12.50;;;;;;;-2.47;99.01;96845.92;108836;1282;22936;-85
2024/01/13 01:03:45;;;;;;;15.80;12.30;;;;;;;-2.48;98.94;96843.09;108699;1281;137398;-87
2024/01/13 01:06:11;;;;;;;18.00;12.10;;;;;;;-2.45;98.92;96837.35;108833;1276;22523;-85
2024/01/13 01:08:38;;;;;;;18.90;14.20;;;;;;;-2.39;99.05;96843.14;108767;1280;22756;-86
2024/01/13 01:11:08;;;;;;;14.70;11.70;;;;;;;-2.35;98.74;96843.37;108786;1263;138852;-85
2024/01/13 01:13:35;;;;;;;12.20;10.70;;;;;;;-2.30;98.95;96838.11;108828;1276;22589;-85
2024/01/13 01:16:01;;;;;;;13.40;10.00;;;;;;;-2.28;99.01;96834.64;108671;1281;138271;-86
2024/01/13 01:18:28;;;;;;;12.40;9.70;;;;;;;-2.30;98.94;96833.06;108919;1281;22539;-85
2024/01/13 01:20:55;;;;;;;12.30;11.10;;;;;;;-2.30;98.90;96834.96;108808;1276;25375;-86
2024/01/13 01:23:24;;;;;;;15.40;11.40;;;;;;;-2.31;99.06;96833.95;108616;1274;136786;-85
2024/01/13 01:25:51;;;;;;;14.30;11.60;;;;;;;-2.32;99.07;96827.56;108788;1282;22653;-85
2024/01/13 01:28:18;;;;;;;13.40;11.20;;;;;;;-2.32;99.23;96831.99;108614;1282;137054;-85
2024/01/13 01:30:44;;;;;;;18.50;11.10;;;;;;;-2.33;99.43;96832.40;108707;1274;22625;-85
2024/01/13 01:33:11;;;;;;;19.50;11.40;;;;;;;-2.31;99.57;96830.92;108771;1280;23872;-86
2024/01/13 01:35:38;;;;;;;19.00;11.70;;;;;;;-2.26;99.28;96830.98;108691;1276;137559;-85
2024/01/13 01:38:07;;;;;;;17.20;11.20;;;;;;;-2.22;99.22;96828.52;108822;1282;23864;-85
2024/01/13 01:40:34;;;;;;;16.40;10.60;;;;;;;-2.17;98.87;96827.84;108714;1281;138471;-86
2024/01/13 01:43:02;;;;;;;14.60;9.90;;;;;;;-2.14;98.94;96821.22;108658;1281;23338;-85
2024/01/13 01:45:29;;;;;;;12.60;10.20;;;;;;;-2.15;98.94;96822.62;108760;1276;22659;-85
2024/01/13 01:47:55;;;;;;;13.20;10.50;;;;;;;-2.14;98.95;96819.16;108638;1270;136911;-85
2024/01/13 01:50:22;;;;;;;14.00;10.60;;;;;;;-2.15;99.11;96821.27;108681;1280;22544;-85
2024/01/13 01:52:49;;;;;;;14.00;11.20;;;;;;;-2.18;99.35;96818.59;108638;1281;136893;-85
2024/01/13 01:55:16;;;;;;;10.70;8.60;;;;;;;-2.20;99.36;96813.65;108883;1282;22587;-85
2024/01/13 01:57:42;;;;;;;12.80;10.10;;;;;;;-2.23;99.55;96807.01;108757;1281;22582;-85
2024/01/13 02:00:09;;;;;;;11.50;9.80;;;;;;;-2.26;99.62;96799.77;108445;1279;22703;-85
2024/01/13 02:02:36;;;;;;;12.30;9.60;;;;;;;-2.30;99.56;96797.23;108615;1276;22555;-84
2024/01/13 02:05:03;;;;;;;11.90;9.70;;;;;;;-2.33;99.66;96794.53;108285;1270;138593;-87
2024/01/13 02:07:32;;;;;;;12.70;8.90;;;;;;;-2.33;99.80;96788.95;108459;1277;22552;-87
2024/01/13 02:10:00;;;;;;;12.40;9.40;;;;;;;-2.34;99.98;96789.17;108513;1275;137925;-87
2024/01/13 02:12:27;;;;;;;10.80;9.30;;;;;;;-2.38;99.98;96784.66;108400;1280;22528;-87
2024/01/13 02:14:54;;;;;;;10.40;8.60;;;;;;;-2.39;100.00;96783.23;108274;1279;22587;-87
2024/01/13 02:17:22;;;;;;;12.00;9.50;;;;;;;-2.39;100.00;96771.17;108328;1281;138974;-86
2024/01/13 02:19:48;;;;;;;9.70;8.30;;;;;;;-2.36;100.00;96766.60;108486;1280;22538;-86
2024/01/13 02:22:15;;;;;;;11.50;8.80;;;;;;;-2.36;100.00;96757.58;108306;1282;138582;-86
2024/01/13 02:24:42;;;;;;;9.80;8.20;;;;;;;-2.34;100.00;96751.83;108317;1277;22595;-87
2024/01/13 02:27:08;;;;;;;10.90;8.50;;;;;;;-2.33;100.00;96754.50;108374;1281;22533;-86
2024/01/13 02:29:35;;;;;;;10.80;9.20;;;;;;;-2.31;100.00;96755.38;108174;1282;138172;-86
2024/01/13 02:32:02;;;;;;;12.20;9.30;;;;;;;-2.32;100.00;96754.08;108459;1281;22608;-88
2024/01/13 02:34:29;;;;;;;10.30;8.40;;;;;;;-2.29;100.00;96757.98;108216;1282;138945;-88
2024/01/13 02:36:55;;;;;;;8.80;7.20;;;;;;;-2.25;100.00;96761.88;108446;1259;22758;-87
2024/01/13 02:39:22;;;;;;;13.40;8.60;;;;;;;-2.21;100.00;96762.45;108481;1279;22642;-87
2024/01/13 02:41:49;;;;;;;11.00;8.50;;;;;;;-2.20;100.00;96759.47;108338;1282;138607;-87
2024/01/13 02:44:15;;;;;;;8.90;8.10;;;;;;;-2.18;100.00;96762.24;108442;1280;25473;-87
2024/01/13 02:46:42;;;;;;;10.20;7.80;;;;;;;-2.19;100.00;96767.21;108396;1273;137759;-85
2024/01/13 02:49:09;;;;;;;13.00;8.70;;;;;;;-2.22;100.00;96766.75;108430;1282;22849;-87
2024/01/13 02:51:35;;;;;;;14.40;9.30;;;;;;;-2.24;100.00;96765.50;108417;1278;22592;-86
2024/01/13 02:54:02;;;;;;;11.80;8.00;;;;;;;-2.22;100.00;96762.14;108441;1282;138725;-86
2024/01/13 02:56:29;;;;;;;11.00;8.50;;;;;;;-2.20;100.00;96765.76;108539;1282;22603;-87
2024/01/13 02:58:56;;;;;;;10.50;8.70;;;;;;;-2.16;100.00;96762.65;108288;1282;138280;-86
2024/01/13 03:01:23;;;;;;;8.80;7.90;;;;;;;-2.17;100.00;96761.12;108465;1282;23211;-86
2024/01/13 03:03:49;;;;;;;10.10;7.50;;;;;;;-2.17;100.00;96759.66;108341;1282;138527;-87
2024/01/13 03:06:16;;;;;;;8.70;7.70;;;;;;;-2.19;100.00;96759.55;108466;1275;22567;-87
2024/01/13 03:08:44;;;;;;;7.30;6.60;;;;;;;-2.18;100.00;96761.04;108335;1280;22595;-85
2024/01/13 03:11:15;;;;;;;9.50;7.60;;;;;;;-2.18;100.00;96756.62;108317;1280;138608;-86
2024/01/13 03:13:42;;;;;;;7.70;6.90;;;;;;;-2.14;100.00;96756.73;108404;1282;22532;-87
2024/01/13 03:16:09;;;;;;;7.60;6.30;;;;;;;-2.13;100.00;96748.82;108231;1283;138535;-86
2024/01/13 03:18:36;;;;;;;9.00;6.90;;;;;;;-2.12;100.00;96746.64;108344;1276;22529;-86
2024/01/13 03:21:04;;;;;;;7.80;6.60;;;;;;;-2.11;100.00;96752.33;108327;1281;25676;-87
2024/01/13 03:23:30;;;;;;;7.90;6.00;;;;;;;-2.09;100.00;96753.42;108369;1278;137806;-85
2024/01/13 03:25:57;;;;;;;8.80;6.80;;;;;;;-2.09;100.00;96755.27;108399;1284;25438;-86
2024/01/13 03:28:24;;;;;;;8.00;7.20;;;;;;;-2.10;100.00;96753.77;108319;1282;138487;-85
2024/01/13 03:30:51;;;;;;;8.70;6.70;;;;;;;-2.09;100.00;96755.27;108309;1273;22626;-86
2024/01/13 03:33:17;;;;;;;7.70;6.70;;;;;;;-2.07;100.00;96751.22;108453;1277;22585;-85
2024/01/13 03:35:44;;;;;;;7.30;6.60;;;;;;;-2.05;100.00;96748.25;108294;1276;138444;-86
2024/01/13 03:38:11;;;;;;;9.00;7.30;;;;;;;-2.06;100.00;96744.69;108439;1281;22960;-86
2024/01/13 03:40:37;;;;;;;7.80;6.70;;;;;;;-2.07;100.00;96749.04;108275;1280;137609;-86
2024/01/13 03:43:04;;;;;;;7.80;6.90;;;;;;;-2.08;100.00;96741.80;108342;1282;22504;-86
2024/01/13 03:45:31;;;;;;;9.00;7.40;;;;;;;-2.08;100.00;96741.77;108428;1277;22580;-85
2024/01/13 03:47:57;;;;;;;8.30;7.30;;;;;;;-2.08;100.00;96739.21;108343;1276;138366;-86
2024/01/13 03:50:24;;;;;;;8.40;7.30;;;;;;;-2.08;100.00;96741.26;108419;1277;24495;-86
2024/01/13 03:52:51;;;;;;;7.70;6.40;;;;;;;-2.08;100.00;96738.88;108343;1280;138164;-84
2024/01/13 03:55:17;;;;;;;8.70;6.30;;;;;;;-2.09;100.00;96737.30;108447;1276;22549;-85
2024/01/13 03:57:44;;;;;;;9.30;7.30;;;;;;;-2.13;100.00;96736.13;108773;1275;22571;-84
2024/01/13 04:00:12;;;;;;;8.50;6.90;;;;;;;-2.14;100.00;96731.58;108848;1281;22707;-85
2024/01/13 04:02:39;;;;;;;7.40;6.40;;;;;;;-2.15;100.00;96728.26;108846;1274;25459;-86
2024/01/13 04:05:06;;;;;;;7.70;6.70;;;;;;;-2.13;100.00;96724.94;108705;1282;138324;-85
2024/01/13 04:07:33;;;;;;;7.90;7.10;;;;;;;-2.13;100.00;96719.45;108887;1281;23033;-85
2024/01/13 04:10:01;;;;;;;8.70;6.60;;;;;;;-2.15;100.00;96711.14;108669;1280;137051;-85
2024/01/13 04:12:28;;;;;;;9.20;7.00;;;;;;;-2.19;100.00;96708.52;108902;1280;22642;-85
2024/01/13 04:14:55;;;;;;;10.90;7.70;;;;;;;-2.18;100.00;96702.52;108766;1275;23340;-85
2024/01/13 04:17:22;;;;;;;9.00;7.90;;;;;;;-2.16;100.00;96698.80;108690;1281;138664;-85
2024/01/13 04:19:48;;;;;;;9.60;6.60;;;;;;;-2.14;100.00;96701.55;108740;1280;22587;-86
2024/01/13 04:22:16;;;;;;;8.70;7.00;;;;;;;-2.13;100.00;96702.68;108559;1283;137122;-85
2024/01/13 04:24:42;;;;;;;6.80;6.10;;;;;;;-2.11;100.00;96705.81;108429;1283;25079;-86
2024/01/13 04:27:09;;;;;;;8.80;6.90;;;;;;;-2.12;100.00;96704.14;108318;1281;22597;-87
2024/01/13 04:29:36;;;;;;;8.80;7.30;;;;;;;-2.15;100.00;96708.21;108173;1275;138383;-86
2024/01/13 04:32:02;;;;;;;8.80;6.80;;;;;;;-2.16;100.00;96705.95;108379;1279;22548;-87
2024/01/13 04:34:29;;;;;;;9.90;7.10;;;;;;;-2.16;100.00;96704.92;108263;1278;138564;-86
2024/01/13 04:36:56;;;;;;;7.40;6.60;;;;;;;-2.16;100.00;96703.19;108468;1276;22606;-86
2024/01/13 04:39:22;;;;;;;7.30;6.10;;;;;;;-2.13;100.00;96700.80;108477;1282;22537;-87
2024/01/13 04:41:49;;;;;;;8.10;6.40;;;;;;;-2.10;100.00;96698.10;108237;1259;138308;-86
2024/01/13 04:44:16;;;;;;;7.90;6.20;;;;;;;-2.07;100.00;96693.18;108371;1277;23322;-87
2024/01/13 04:46:43;;;;;;;8.00;6.10;;;;;;;-2.07;100.00;96690.64;108303;1282;137841;-86
2024/01/13 04:49:09;;;;;;;10.10;6.00;;;;;;;-2.07;100.00;96692.17;108339;1275;24907;-87
2024/01/13 04:51:36;;;;;;;8.40;6.40;;;;;;;-2.07;100.00;96691.00;108324;1283;22703;-85
2024/01/13 04:54:03;;;;;;;7.70;5.70;;;;;;;-2.07;100.00;96694.89;108287;1275;138146;-85
2024/01/13 04:56:30;;;;;;;7.70;5.50;;;;;;;-2.07;100.00;96697.60;108384;1283;22550;-86
2024/01/13 04:58:57;;;;;;;6.30;5.60;;;;;;;-2.04;100.00;96699.06;108342;1277;138331;-86
2024/01/13 05:01:23;;;;;;;7.10;5.70;;;;;;;-2.01;100.00;96696.88;108337;1274;22647;-85
2024/01/13 05:03:50;;;;;;;7.20;5.50;;;;;;;-2.01;100.00;96694.30;108354;1277;137816;-86
2024/01/13 05:06:16;;;;;;;8.40;5.50;;;;;;;-2.01;100.00;96683.90;108367;1282;22683;-86
2024/01/13 05:08:44;;;;;;;6.30;5.50;;;;;;;-2.00;100.00;96680.47;108422;1275;22681;-86
2024/01/13 05:11:11;;;;;;;8.30;6.00;;;;;;;-1.99;100.00;96683.84;108327;1282;138167;-86
2024/01/13 05:13:38;;;;;;;7.80;5.00;;;;;;;-1.98;100.00;96680.70;108424;1283;23959;-87
2024/01/13 05:16:04;;;;;;;5.90;5.10;;;;;;;-1.97;100.00;96679.11;108212;1278;138513;-85
2024/01/13 05:18:31;;;;;;;5.50;4.60;;;;;;;-1.94;100.00;96677.23;108300;1276;22575;-87
2024/01/13 05:20:58;;;;;;;7.50;5.20;;;;;;;-1.93;100.00;96680.87;108366;1278;22551;-87
2024/01/13 05:23:24;;;;;;;6.10;5.30;;;;;;;-1.91;100.00;96676.88;108318;1280;137583;-86
2024/01/13 05:25:51;;;;;;;12.20;8.00;;;;;;;-1.90;100.00;96676.12;108352;1284;25423;-87
2024/01/13 05:28:19;;;;;;;7.70;5.40;;;;;;;-1.88;100.00;96666.27;108227;1284;138650;-86
2024/01/13 05:30:45;;;;;;;11.50;7.10;;;;;;;-1.85;100.00;96662.52;108216;1284;22732;-87
2024/01/13 05:33:12;;;;;;;10.30;6.50;;;;;;;-1.84;100.00;96662.44;108267;1283;22570;-87
2024/01/13 05:35:39;;;;;;;41.50;16.70;;;;;;;-1.85;100.00;96662.66;108195;1282;138390;-86
2024/01/13 05:38:06;;;;;;;28.20;12.70;;;;;;;-1.86;100.00;96659.52;108218;1284;22662;-87
2024/01/13 05:40:33;;;;;;;23.40;11.30;;;;;;;-1.85;100.00;96658.42;108111;1284;138494;-85
2024/01/13 05:43:00;;;;;;;29.30;11.30;;;;;;;-1.84;100.00;96655.84;108285;1283;22540;-85
2024/01/13 05:45:27;;;;;;;300.40;120.10;;;;;;;-1.82;100.00;96659.46;108271;1284;22537;-86
2024/01/13 05:47:53;;;;;;;201.30;65.30;;;;;;;-1.79;100.00;96658.60;108153;1277;139254;-85
2024/01/13 05:50:20;;;;;;;78.80;27.10;;;;;;;-1.75;100.00;96653.44;108244;1280;25436;-84
2024/01/13 05:52:47;;;;;;;58.10;19.40;;;;;;;-1.72;100.00;96654.77;108200;1276;138379;-85
2024/01/13 05:55:14;;;;;;;22.10;10.20;;;;;;;-1.70;100.00;96661.59;108667;1276;22531;-85
2024/01/13 05:57:40;;;;;;;45.80;23.70;;;;;;;-1.70;100.00;96666.86;108525;1277;24229;-85
2024/01/13 06:00:09;;;;;;;25.10;13.90;;;;;;;-1.70;100.00;96667.04;108517;1280;136878;-85
2024/01/13 06:02:35;;;;;;;36.50;13.60;;;;;;;-1.72;100.00;96666.95;108631;1276;22617;-85
2024/01/13 06:05:02;;;;;;;21.30;8.50;;;;;;;-1.70;100.00;96671.44;108531;1279;138821;-85
2024/01/13 06:07:30;;;;;;;12.50;7.30;;;;;;;-1.68;100.00;96671.30;108528;1280;22631;-85
2024/01/13 06:09:58;;;;;;;19.00;11.90;;;;;;;-1.63;100.00;96674.70;108274;1284;138837;-85
2024/01/13 06:12:26;;;;;;;20.80;10.40;;;;;;;-1.59;100.00;96671.89;108335;1283;25438;-85
2024/01/13 06:14:53;;;;;;;36.10;14.70;;;;;;;-1.60;100.00;96668.76;108412;1284;22540;-85
2024/01/13 06:17:20;;;;;;;22.40;11.20;;;;;;;-1.62;100.00;96669.19;108394;1282;137967;-85
2024/01/13 06:19:47;;;;;;;27.80;12.40;;;;;;;-1.63;100.00;96674.55;108787;1277;25969;-86
2024/01/13 06:22:14;;;;;;;12.90;7.50;;;;;;;-1.63;100.00;96680.33;108685;1282;137522;-86
2024/01/13 06:24:41;;;;;;;59.30;32.60;;;;;;;-1.63;100.00;96678.25;108880;1275;23245;-86
2024/01/13 06:27:08;;;;;;;30.80;13.20;;;;;;;-1.59;100.00;96683.83;108729;1276;22562;-85
2024/01/13 06:29:35;;;;;;;30.20;14.60;;;;;;;-1.56;100.00;96678.35;108692;1275;137953;-85
2024/01/13 06:32:02;;;;;;;17.60;8.90;;;;;;;-1.53;100.00;96678.27;108768;1281;22664;-85
2024/01/13 06:34:29;;;;;;;15.30;9.90;;;;;;;-1.51;100.00;96668.16;108724;1275;138107;-85
2024/01/13 06:36:56;;;;;;;17.00;8.80;;;;;;;-1.53;100.00;96663.14;108804;1278;22767;-85
2024/01/13 06:39:23;;;;;;;14.10;10.10;;;;;;;-1.54;100.00;96660.85;108850;1278;22561;-85
2024/01/13 06:41:50;;;;;;;8.80;7.00;;;;;;;-1.55;100.00;96657.00;108617;1267;137874;-86
2024/01/13 06:44:17;;;;;;;8.70;6.50;;;;;;;-1.54;100.00;96658.77;109007;1272;25292;-85
2024/01/13 06:46:44;;;;;;;14.20;7.80;;;;;;;-1.53;100.00;96658.04;108560;1259;138419;-85
2024/01/13 06:49:10;;;;;;;7.60;6.70;;;;;;;-1.49;100.00;96653.07;108654;1278;22652;-85
2024/01/13 06:51:37;;;;;;;7.70;5.90;;;;;;;-1.46;100.00;96646.92;108590;1275;22741;-85
2024/01/13 06:54:04;;;;;;;8.00;6.40;;;;;;;-1.45;100.00;96639.19;108846;1275;137880;-85
2024/01/13 06:56:31;;;;;;;10.00;8.00;;;;;;;-1.44;100.00;96636.13;108652;1265;22550;-85
2024/01/13 06:58:57;;;;;;;9.50;7.60;;;;;;;-1.47;100.00;96631.67;108309;1277;138039;-85
2024/01/13 07:01:24;;;;;;;7.90;6.70;;;;;;;-1.47;100.00;96631.04;108387;1283;25466;-86
2024/01/13 07:03:52;;;;;;;19.20;13.50;;;;;;;-1.47;100.00;96626.63;108299;1275;138443;-87
2024/01/13 07:06:19;;;;;;;235.40;101.30;;;;;;;-1.46;100.00;96625.52;108394;1277;22767;-84
2024/01/13 07:08:46;;;;;;;285.70;120.40;;;;;;;-1.46;100.00;96627.71;108580;1278;22773;-85
2024/01/13 07:11:14;;;;;;;119.70;49.90;;;;;;;-1.46;100.00;96628.61;108329;1277;139162;-85
2024/01/13 07:13:42;;;;;;;82.80;31.30;;;;;;;-1.46;100.00;96636.88;108403;1277;22591;-86
2024/01/13 07:16:11;;;;;;;45.40;17.70;;;;;;;-1.46;100.00;96638.45;108301;1275;138283;-85
2024/01/13 07:18:38;;;;;;;36.00;13.50;;;;;;;-1.45;100.00;96642.13;108268;1282;23447;-86
2024/01/13 07:21:08;;;;;;;30.90;13.60;;;;;;;-1.44;100.00;96643.10;108460;1281;22697;-87
2024/01/13 07:23:35;;;;;;;30.80;13.60;;;;;;;-1.44;100.00;96640.72;108349;1283;138956;-88
2024/01/13 07:26:02;;;;;;;32.10;14.00;;;;;;;-1.41;100.00;96639.14;108241;1283;23699;-89
2024/01/13 07:28:29;;;;;;;24.00;11.20;;;;;;;-1.37;100.00;96632.90;108255;1273;138952;-88
2024/01/13 07:30:56;;;;;;;73.90;28.70;;;;;;;-1.38;100.00;96631.42;108395;1280;22622;-87
2024/01/13 07:33:23;;;;;;;137.40;49.30;;;;;;;-1.41;100.00;96634.71;108390;1281;24260;-86
2024/01/13 07:35:50;;;;;;;56.60;19.00;;;;;;;-1.43;100.00;96640.95;108317;1284;138304;-85
2024/01/13 07:38:16;;;;;;;38.00;14.40;;;;;;;-1.44;100.00;96637.95;108199;1276;22594;-85
2024/01/13 07:40:43;;;;;;;15.60;8.30;;;;;;;-1.42;100.00;96642.77;108123;1283;138817;-85
2024/01/13 07:43:10;;;;;;;29.20;11.30;;;;;;;-1.39;100.00;96642.73;108446;1283;22563;-85
2024/01/13 07:45:37;;;;;;;42.60;19.00;;;;;;;-1.35;100.00;96649.20;108299;1283;22534;-87
2024/01/13 07:48:04;;;;;;;91.70;30.20;;;;;;;-1.31;100.00;96647.11;108270;1278;138132;-87
2024/01/13 07:50:33;;;;;;;68.30;23.70;;;;;;;-1.30;100.00;96652.69;108473;1277;22533;-86
2024/01/13 07:53:00;;;;;;;22.50;14.80;;;;;;;-1.30;100.00;96658.80;108306;1284;137976;-87
2024/01/13 07:55:27;;;;;;;19.00;13.60;;;;;;;-1.32;100.00;96662.48;108395;1276;22559;-85
2024/01/13 07:57:54;;;;;;;27.00;11.30;;;;;;;-1.33;100.00;96659.48;108123;1280;139169;-85
2024/01/13 08:00:22;;;;;;;21.90;10.70;;;;;;;-1.31;100.00;96655.60;108197;1276;22611;-86
2024/01/13 08:02:49;;;;;;;18.80;10.00;;;;;;;-1.30;100.00;96649.77;108293;1284;22605;-85
2024/01/13 08:05:16;;;;;;;179.90;58.60;;;;;;;-1.27;100.00;96647.87;108146;1279;138554;-85
2024/01/13 08:07:42;;;;;;;38.60;17.70;;;;;;;-1.25;100.00;96649.09;108309;1284;22556;-86
2024/01/13 08:10:10;;;;;;;38.40;16.70;;;;;;;-1.24;100.00;96648.36;108229;1280;137320;-88
2024/01/13 08:12:37;;;;;;;34.90;15.20;;;;;;;-1.25;100.00;96646.04;108425;1280;22530;-85
2024/01/13 08:15:04;;;;;;;69.70;27.70;;;;;;;-1.27;100.00;96646.67;108501;1273;22619;-85
2024/01/13 08:17:31;;;;;;;80.40;30.20;;;;;;;-1.28;100.00;96641.47;108590;1282;138331;-86
2024/01/13 08:19:58;;;;;;;41.70;16.80;;;;;;;-1.28;100.00;96634.84;108527;1281;24235;-85
2024/01/13 08:22:24;;;;;;;26.10;12.40;;;;;;;-1.26;100.00;96632.46;108321;1282;138858;-85
2024/01/13 08:24:51;;;;;;;14.10;8.60;;;;;;;-1.22;100.00;96631.04;108426;1282;25441;-85
2024/01/13 08:27:18;;;;;;;18.80;9.30;;;;;;;-1.19;100.00;96627.30;108491;1282;22504;-85
2024/01/13 08:29:44;;;;;;;15.30;10.80;;;;;;;-1.18;100.00;96630.25;108437;1282;138305;-85
2024/01/13 08:32:11;;;;;;;46.60;22.20;;;;;;;-1.18;100.00;96628.42;108390;1282;22559;-84
2024/01/13 08:34:38;;;;;;;34.80;14.50;;;;;;;-1.18;100.00;96619.05;108332;1282;139447;-85
2024/01/13 08:37:05;;;;;;;23.00;12.40;;;;;;;-1.18;100.00;96621.45;108398;1282;22567;-85
2024/01/13 08:39:32;;;;;;;18.20;9.30;;;;;;;-1.17;99.94;96615.59;109853;1277;22951;-85
2024/01/13 08:41:58;;;;;;;14.60;8.70;;;;;;;-1.14;99.91;96617.39;108761;1281;138293;-85
2024/01/13 08:44:25;;;;;;;14.40;8.20;;;;;;;-1.08;99.93;96619.52;108652;1282;22643;-84
2024/01/13 08:46:52;;;;;;;10.00;7.70;;;;;;;-1.05;99.46;96618.13;108839;1279;138132;-84
2024/01/13 08:49:19;;;;;;;33.20;18.00;;;;;;;-1.04;99.13;96614.71;108552;1276;22665;-84
2024/01/13 08:51:46;;;;;;;17.60;11.10;;;;;;;-1.05;99.51;96619.86;108323;1275;138677;-86
2024/01/13 08:54:13;;;;;;;26.60;14.30;;;;;;;-1.05;99.53;96612.71;108550;1282;22587;-84
2024/01/13 08:56:39;;;;;;;13.80;8.30;;;;;;;-1.03;99.26;96608.12;108528;1281;22599;-84
2024/01/13 08:59:08;;;;;;;14.70;9.80;;;;;;;-0.99;99.08;96607.35;108508;1278;138458;-85
2024/01/13 09:01:35;;;;;;;11.50;8.40;;;;;;;-0.98;99.10;96603.05;108654;1277;23925;-85
2024/01/13 09:04:02;;;;;;;30.40;15.10;;;;;;;-0.97;98.80;96601.33;108443;1278;137773;-85
2024/01/13 09:06:29;;;;;;;16.60;10.50;;;;;;;-0.96;98.84;96605.64;108629;1281;22681;-84
2024/01/13 09:08:56;;;;;;;33.00;14.80;;;;;;;-0.98;98.67;96604.95;108557;1274;22767;-84
2024/01/13 09:11:24;;;;;;;22.00;10.00;;;;;;;-0.97;98.66;96609.61;108231;1282;138449;-85
2024/01/13 09:13:50;;;;;;;52.80;20.50;;;;;;;-0.93;98.74;96610.70;108696;1274;22565;-85
2024/01/13 09:16:17;;;;;;;21.50;10.90;;;;;;;-0.88;98.61;96602.89;108633;1276;138619;-85
2024/01/13 09:18:44;;;;;;;11.20;8.30;;;;;;;-0.88;98.53;96599.64;108527;1270;23111;-85
2024/01/13 09:21:12;;;;;;;16.00;9.20;;;;;;;-0.87;98.37;96602.30;108574;1278;22567;-85
2024/01/13 09:23:40;;;;;;;15.00;9.00;;;;;;;-0.86;98.55;96603.77;108684;1282;136732;-85
2024/01/13 09:26:07;;;;;;;11.40;8.20;;;;;;;-0.86;98.62;96606.14;108617;1275;22592;-85
2024/01/13 09:28:34;;;;;;;41.40;20.50;;;;;;;-0.87;98.03;96601.96;108689;1282;137393;-85
2024/01/13 09:31:00;;;;;;;211.20;77.60;;;;;;;-0.87;98.26;96600.11;108446;1277;22537;-84
2024/01/13 09:33:28;;;;;;;146.00;55.20;;;;;;;-0.86;97.94;96599.49;108691;1281;22573;-85
2024/01/13 09:35:55;;;;;;;97.10;39.30;;;;;;;-0.87;97.52;96594.10;108670;1282;139115;-85
2024/01/13 09:38:26;;;;;;;72.60;29.70;;;;;;;-0.84;98.31;96593.21;108883;1275;22563;-84
2024/01/13 09:40:52;;;;;;;75.20;39.00;;;;;;;-0.84;97.69;96590.16;108397;1281;137826;-86
2024/01/13 09:43:40;;;;;;;41.90;21.70;;;;;;;-0.85;97.97;96586.13;108587;1273;22900;-86
2024/01/13 09:46:09;;;;;;;47.20;20.20;;;;;;;-0.85;97.70;96574.75;108770;1277;138627;-85
2024/01/13 09:48:36;;;;;;;260.00;95.40;;;;;;;-0.84;97.68;96576.89;108522;1282;22579;-87
2024/01/13 09:51:03;;;;;;;263.40;79.40;;;;;;;-0.81;97.66;96577.55;108731;1282;22623;-86
2024/01/13 09:53:30;;;;;;;103.20;33.20;;;;;;;-0.77;97.50;96576.60;108802;1270;139040;-87
2024/01/13 09:56:03;;;;;;;61.30;20.70;;;;;;;-0.76;97.34;96579.23;108934;1281;22494;-86
2024/01/13 09:58:30;;;;;;;41.70;16.90;;;;;;;-0.74;97.15;96571.25;108638;1282;137866;-86
2024/01/13 10:01:01;;;;;;;49.40;19.50;;;;;;;-0.73;97.55;96567.50;108699;1282;22575;-85
2024/01/13 10:03:30;;;;;;;62.80;22.30;;;;;;;-0.73;97.59;96561.33;108898;1278;22781;-85
2024/01/13 10:05:57;;;;;;;40.00;15.50;;;;;;;-0.71;97.66;96558.98;108675;1278;138637;-86
2024/01/13 10:08:33;;;;;;;54.90;21.60;;;;;;;-0.68;97.18;96556.87;108664;1282;22531;-87
2024/01/13 10:11:03;;;;;;;32.70;14.80;;;;;;;-0.66;97.09;96556.56;108583;1262;138596;-86
2024/01/13 10:13:30;;;;;;;56.40;18.60;;;;;;;-0.65;96.66;96553.63;108677;1275;24443;-84
2024/01/13 10:15:58;;;;;;;42.40;17.80;;;;;;;-0.67;96.87;96545.48;108662;1282;138281;-86
2024/01/13 10:18:25;;;;;;;46.20;19.20;;;;;;;-0.62;97.09;96543.90;108544;1278;22627;-86
2024/01/13 10:20:52;;;;;;;55.10;25.60;;;;;;;-0.61;97.04;96535.98;108501;1281;22565;-86
2024/01/13 10:23:19;;;;;;;24.90;15.30;;;;;;;-0.61;96.75;96534.46;108561;1282;138344;-86
2024/01/13 10:25:46;;;;;;;127.10;53.20;;;;;;;-0.63;96.83;96535.13;108537;1281;22526;-86
2024/01/13 10:28:13;;;;;;;38.60;20.00;;;;;;;-0.62;96.80;96532.84;108370;1282;139625;-86
2024/01/13 10:30:40;;;;;;;43.20;22.40;;;;;;;-0.60;96.63;96532.33;108672;1278;22586;-86
2024/01/13 10:33:12;;;;;;;25.00;14.40;;;;;;;-0.56;96.62;96531.23;108563;1282;22919;-84
2024/01/13 10:35:38;;;;;;;15.90;10.00;;;;;;;-0.56;96.27;96530.20;108549;1282;138548;-84
2024/01/13 10:38:07;;;;;;;12.60;9.10;;;;;;;-0.58;96.47;96526.09;108648;1282;22507;-85
2024/01/13 10:40:35;;;;;;;83.70;41.70;;;;;;;-0.58;96.71;96519.27;108571;1275;137997;-84
2024/01/13 10:43:05;;;;;;;80.30;37.00;;;;;;;-0.55;96.88;96509.84;108633;1281;22569;-85
2024/01/13 10:45:32;;;;;;;33.80;17.40;;;;;;;-0.52;96.80;96504.55;108524;1282;22522;-84
2024/01/13 10:48:03;;;;;;;20.50;11.60;;;;;;;-0.54;96.15;96500.46;108492;1280;137256;-84
2024/01/13 10:50:31;;;;;;;13.00;10.50;;;;;;;-0.52;95.73;96496.70;108602;1281;22579;-86
2024/01/13 10:53:16;;;;;;;12.40;8.70;;;;;;;-0.51;95.94;96494.60;108406;1282;138502;-86
2024/01/13 10:55:43;;;;;;;35.50;21.40;;;;;;;-0.48;95.91;96488.98;108424;1282;23724;-86
2024/01/13 10:58:09;;;;;;;26.10;14.80;;;;;;;-0.48;95.66;96481.30;108503;1281;137931;-87
2024/01/13 11:00:36;;;;;;;23.20;15.90;;;;;;;-0.48;95.75;96468.69;108630;1282;22633;-85
2024/01/13 11:03:04;;;;;;;21.80;13.00;;;;;;;-0.48;95.94;96461.56;108794;1281;22671;-87
2024/01/13 11:05:30;;;;;;;19.30;13.40;;;;;;;-0.47;96.09;96458.95;108319;1275;136924;-86